KCBM/CBM METAR and TAF weather

Enter ICAO airport designator
Station Type Date Time Source
KCBM METAR 2019/10/18 05:56 UTC NOAA

KCBM 180556Z AUTO 00000KT 10SM CLR 09/08 A2999 RMK AO2 SLP158 T00920080 10140 20081 401940052 58006 $


Station Type Date Time Source
KCBM Decoded METAR 2019/10/18 05:56 UTC NOAA

Columbus Air Force Base, MS, United States (KCBM) 33-39N 088-27W
Oct 18, 2019 - 01:56 AM EDT / 2019.10.18 0556 UTC
Wind: Calm:0
Visibility: 10 mile(s):0
Sky conditions: clear
Temperature: 48.6 F (9.2 C)
Dew Point: 46.4 F (8.0 C)
Relative Humidity: 92%
Pressure (altimeter): 29.99 in. Hg (1015 hPa)
Pressure tendency: 0.02 inches (0.6 hPa) lower than three hours ago
ob: KCBM 180556Z AUTO 00000KT 10SM CLR 09/08 A2999 RMK AO2 SLP158 T00920080 10140 20081 401940052 58006
cycle: 6

Station Type Date Time Source
KCBM TAF 2019/10/17 23:57 UTC NOAA

TAF
AMD KCBM 172345Z 1723/1823 01006KT 9999 FEW300 QNH2986INS TX15/1723Z TN08/1812Z LST NO
AMDS AFT 1800 NEXT 1809

Example: see airport list